createdAt,value
2023-04-18T00:00:04.691Z,534.00
2023-04-18T00:01:04.760Z,537.00
2023-04-18T00:02:04.803Z,533.00
2023-04-18T00:03:05.119Z,535.00
2023-04-18T00:04:04.851Z,535.00
2023-04-18T00:05:04.789Z,535.00
2023-04-18T00:06:05.787Z,533.00
2023-04-18T00:07:05.813Z,531.00
2023-04-18T00:08:05.811Z,529.00
2023-04-18T00:09:05.830Z,530.00
2023-04-18T00:10:05.850Z,529.00
2023-04-18T00:11:05.831Z,530.00
2023-04-18T00:12:05.862Z,533.00
2023-04-18T00:13:05.866Z,531.00
2023-04-18T00:14:05.891Z,529.00
2023-04-18T00:15:05.932Z,526.00
2023-04-18T00:16:05.934Z,533.00
2023-04-18T00:17:04.994Z,532.00
2023-04-18T00:18:06.155Z,528.00
2023-04-18T00:19:04.970Z,530.00
2023-04-18T00:20:05.983Z,530.00
2023-04-18T00:21:05.988Z,534.00
2023-04-18T00:22:06.064Z,527.00
2023-04-18T00:23:06.044Z,529.00
2023-04-18T00:24:06.050Z,535.00
2023-04-18T00:25:06.054Z,526.00
2023-04-18T00:26:06.097Z,531.00
2023-04-18T00:27:05.109Z,530.00
2023-04-18T00:28:06.142Z,528.00
2023-04-18T00:29:06.129Z,532.00
2023-04-18T00:30:06.145Z,531.00
2023-04-18T00:31:05.177Z,532.00
2023-04-18T00:32:05.211Z,531.00
2023-04-18T00:33:06.279Z,526.00
2023-04-18T00:34:05.210Z,527.00
2023-04-18T00:35:06.300Z,520.00
2023-04-18T00:36:06.271Z,528.00
2023-04-18T00:37:05.297Z,525.00
2023-04-18T00:38:06.318Z,527.00
2023-04-18T00:39:06.346Z,523.00
2023-04-18T00:40:06.368Z,529.00
2023-04-18T00:41:05.434Z,529.00
2023-04-18T00:42:05.495Z,527.00
2023-04-18T00:43:06.456Z,521.00
2023-04-18T00:44:06.485Z,521.00
2023-04-18T00:45:05.536Z,524.00
2023-04-18T00:46:05.597Z,525.00
2023-04-18T00:47:05.611Z,532.00
2023-04-18T00:48:06.659Z,523.00
2023-04-18T00:49:06.597Z,525.00
2023-04-18T00:50:06.626Z,527.00
2023-04-18T00:51:06.635Z,520.00
2023-04-18T00:52:06.899Z,523.00
2023-04-18T00:53:06.686Z,524.00
2023-04-18T00:54:05.706Z,524.00
2023-04-18T00:55:06.744Z,522.00
2023-04-18T00:56:05.767Z,517.00
2023-04-18T00:57:05.775Z,522.00
2023-04-18T00:58:06.860Z,525.00
2023-04-18T00:59:05.825Z,523.00
2023-04-18T01:00:05.829Z,523.00
2023-04-18T01:01:06.902Z,524.00
2023-04-18T01:02:06.982Z,524.00
2023-04-18T01:03:07.067Z,521.00
2023-04-18T01:04:06.962Z,527.00
2023-04-18T01:05:06.948Z,514.00
2023-04-18T01:06:05.972Z,523.00
2023-04-18T01:07:06.021Z,518.00
2023-04-18T01:08:07.016Z,524.00
2023-04-18T01:09:06.033Z,521.00
2023-04-18T01:10:07.057Z,516.00
2023-04-18T01:11:07.089Z,523.00
2023-04-18T01:12:07.108Z,524.00
2023-04-18T01:13:07.141Z,518.00
2023-04-18T01:14:06.315Z,523.00
2023-04-18T01:15:07.158Z,521.00
2023-04-18T01:16:06.210Z,519.00
2023-04-18T01:17:07.211Z,519.00
2023-04-18T01:18:06.252Z,518.00
2023-04-18T01:19:06.288Z,519.00
2023-04-18T01:20:07.289Z,518.00
2023-04-18T01:21:07.300Z,521.00
2023-04-18T01:22:06.334Z,515.00
2023-04-18T01:23:06.387Z,519.00
2023-04-18T01:24:07.432Z,521.00
2023-04-18T01:25:07.474Z,521.00
2023-04-18T01:26:07.461Z,519.00
2023-04-18T01:27:07.487Z,518.00
2023-04-18T01:28:07.530Z,521.00
2023-04-18T01:29:06.549Z,515.00
2023-04-18T01:30:07.595Z,519.00
2023-04-18T01:31:06.661Z,521.00
2023-04-18T01:32:06.615Z,522.00
2023-04-18T01:33:06.727Z,520.00
2023-04-18T01:34:07.735Z,515.00
2023-04-18T01:35:06.696Z,521.00
2023-04-18T01:36:07.717Z,517.00
2023-04-18T01:37:07.756Z,514.00
2023-04-18T01:38:07.805Z,513.00
2023-04-18T01:39:07.802Z,517.00
2023-04-18T01:40:06.808Z,511.00
2023-04-18T01:41:07.846Z,513.00
2023-04-18T01:42:07.946Z,514.00
2023-04-18T01:43:07.949Z,512.00
2023-04-18T01:44:06.910Z,512.00
2023-04-18T01:45:06.936Z,509.00
2023-04-18T01:46:07.119Z,512.00
2023-04-18T01:47:06.966Z,506.00
2023-04-18T01:48:06.994Z,512.00
2023-04-18T01:49:08.010Z,509.00
2023-04-18T01:50:08.007Z,512.00
2023-04-18T01:51:07.992Z,508.00
2023-04-18T01:52:07.991Z,501.00
2023-04-18T01:53:08.029Z,505.00
2023-04-18T01:54:08.034Z,505.00
2023-04-18T01:55:08.043Z,509.00
2023-04-18T01:56:07.009Z,506.00
2023-04-18T01:57:06.993Z,506.00
2023-04-18T01:58:08.006Z,510.00
2023-04-18T01:59:07.012Z,505.00
2023-04-18T02:00:07.017Z,511.00
2023-04-18T02:01:08.062Z,508.00
2023-04-18T02:02:08.189Z,508.00
2023-04-18T02:03:08.255Z,506.00
2023-04-18T02:04:07.284Z,506.00
2023-04-18T02:05:07.208Z,512.00
2023-04-18T02:06:08.260Z,507.00
2023-04-18T02:07:07.323Z,507.00
2023-04-18T02:08:08.426Z,504.00
2023-04-18T02:09:08.453Z,507.00
2023-04-18T02:10:08.529Z,504.00
2023-04-18T02:11:08.592Z,506.00
2023-04-18T02:12:07.652Z,508.00
2023-04-18T02:13:08.685Z,506.00
2023-04-18T02:14:08.726Z,504.00
2023-04-18T02:15:08.785Z,509.00
2023-04-18T02:16:08.862Z,504.00
2023-04-18T02:17:07.937Z,505.00
2023-04-18T02:18:08.988Z,503.00
2023-04-18T02:19:08.998Z,501.00
2023-04-18T02:20:09.055Z,506.00
2023-04-18T02:21:09.112Z,503.00
2023-04-18T02:22:08.173Z,509.00
2023-04-18T02:23:09.244Z,505.00
2023-04-18T02:24:08.282Z,509.00
2023-04-18T02:25:09.328Z,503.00
2023-04-18T02:26:09.370Z,511.00
2023-04-18T02:27:09.428Z,512.00
2023-04-18T02:28:08.472Z,510.00
2023-04-18T02:29:09.531Z,501.00
2023-04-18T02:30:09.625Z,510.00
2023-04-18T02:31:08.621Z,510.00
2023-04-18T02:32:08.763Z,507.00
2023-04-18T02:33:09.735Z,510.00
2023-04-18T02:34:08.812Z,501.00
2023-04-18T02:35:09.835Z,510.00
2023-04-18T02:36:09.853Z,507.00
2023-04-18T02:37:08.927Z,511.00
2023-04-18T02:38:10.006Z,508.00
2023-04-18T02:39:09.011Z,508.00
2023-04-18T02:40:09.072Z,510.00
2023-04-18T02:41:10.111Z,509.00
2023-04-18T02:42:09.148Z,506.00
2023-04-18T02:43:10.204Z,508.00
2023-04-18T02:44:10.249Z,512.00
2023-04-18T02:45:10.287Z,512.00
2023-04-18T02:46:10.407Z,511.00
2023-04-18T02:47:10.384Z,511.00
2023-04-18T02:48:10.428Z,507.00
2023-04-18T02:49:10.578Z,502.00
2023-04-18T02:50:10.521Z,505.00
2023-04-18T02:51:10.498Z,502.00
2023-04-18T02:52:10.558Z,513.00
2023-04-18T02:53:11.496Z,511.00
2023-04-18T02:54:10.613Z,504.00
2023-04-18T02:55:10.666Z,503.00
2023-04-18T02:56:09.687Z,509.00
2023-04-18T02:57:09.716Z,515.00
2023-04-18T02:58:10.739Z,507.00
2023-04-18T02:59:10.752Z,505.00
2023-04-18T03:00:10.775Z,504.00
2023-04-18T03:01:10.889Z,507.00
2023-04-18T03:02:10.861Z,507.00
2023-04-18T03:03:09.919Z,504.00
2023-04-18T03:04:09.937Z,503.00
2023-04-18T03:05:10.961Z,505.00
2023-04-18T03:06:10.992Z,505.00
2023-04-18T03:07:10.992Z,505.00
2023-04-18T03:08:10.012Z,501.00
2023-04-18T03:09:11.047Z,509.00
2023-04-18T03:10:10.067Z,500.00
2023-04-18T03:11:11.116Z,507.00
2023-04-18T03:12:11.115Z,502.00
2023-04-18T03:13:10.182Z,501.00
2023-04-18T03:14:11.534Z,509.00
2023-04-18T03:15:11.223Z,504.00
2023-04-18T03:16:10.333Z,509.00
2023-04-18T03:17:11.257Z,503.00
2023-04-18T03:18:10.295Z,507.00
2023-04-18T03:19:11.370Z,508.00
2023-04-18T03:20:11.365Z,507.00
2023-04-18T03:21:11.427Z,504.00
2023-04-18T03:22:11.418Z,505.00
2023-04-18T03:23:11.449Z,515.00
2023-04-18T03:24:12.361Z,503.00
2023-04-18T03:25:11.529Z,503.00
2023-04-18T03:26:11.524Z,506.00
2023-04-18T03:27:11.569Z,507.00
2023-04-18T03:28:10.561Z,504.00
2023-04-18T03:29:11.599Z,512.00
2023-04-18T03:30:11.645Z,507.00
2023-04-18T03:31:11.681Z,504.00
2023-04-18T03:32:10.657Z,508.00
2023-04-18T03:33:11.723Z,507.00
2023-04-18T03:34:11.941Z,505.00
2023-04-18T03:35:10.759Z,502.00
2023-04-18T03:36:11.792Z,507.00
2023-04-18T03:37:10.792Z,507.00
2023-04-18T03:38:11.837Z,506.00
2023-04-18T03:39:11.877Z,505.00
2023-04-18T03:40:11.853Z,502.00
2023-04-18T03:41:10.895Z,505.00
2023-04-18T03:42:10.901Z,505.00
2023-04-18T03:43:11.926Z,501.00
2023-04-18T03:44:11.097Z,505.00
2023-04-18T03:45:10.967Z,509.00
2023-04-18T03:46:12.005Z,506.00
2023-04-18T03:47:11.017Z,507.00
2023-04-18T03:48:11.066Z,506.00
2023-04-18T03:49:11.083Z,506.00
2023-04-18T03:50:12.058Z,504.00
2023-04-18T03:51:12.090Z,502.00
2023-04-18T03:52:12.118Z,508.00
2023-04-18T03:53:12.118Z,506.00
2023-04-18T03:54:11.336Z,507.00
2023-04-18T03:55:11.169Z,506.00
2023-04-18T03:56:12.174Z,513.00
2023-04-18T03:57:12.187Z,505.00
2023-04-18T03:58:12.228Z,506.00
2023-04-18T03:59:12.233Z,507.00
2023-04-18T04:00:12.222Z,510.00
2023-04-18T04:01:12.264Z,504.00
2023-04-18T04:02:12.309Z,503.00
2023-04-18T04:03:12.429Z,510.00
2023-04-18T04:04:11.401Z,504.00
2023-04-18T04:05:11.322Z,512.00
2023-04-18T04:06:12.327Z,509.00
2023-04-18T04:07:12.326Z,503.00
2023-04-18T04:08:12.335Z,504.00
2023-04-18T04:09:12.356Z,506.00
2023-04-18T04:10:11.427Z,512.00
2023-04-18T04:11:12.428Z,503.00
2023-04-18T04:12:12.444Z,505.00
2023-04-18T04:13:12.466Z,504.00
2023-04-18T04:14:12.775Z,507.00
2023-04-18T04:15:12.514Z,501.00
2023-04-18T04:16:12.573Z,506.00
2023-04-18T04:17:11.549Z,504.00
2023-04-18T04:18:11.571Z,509.00
2023-04-18T04:19:12.613Z,505.00
2023-04-18T04:20:11.623Z,509.00
2023-04-18T04:21:12.645Z,505.00
2023-04-18T04:22:12.682Z,506.00
2023-04-18T04:23:11.713Z,508.00
2023-04-18T04:24:12.983Z,507.00
2023-04-18T04:25:11.786Z,503.00
2023-04-18T04:26:12.836Z,501.00
2023-04-18T04:27:12.832Z,507.00
2023-04-18T04:28:12.844Z,503.00
2023-04-18T04:29:12.880Z,506.00
2023-04-18T04:30:13.417Z,509.00
2023-04-18T04:31:11.947Z,503.00
2023-04-18T04:32:13.121Z,506.00
2023-04-18T04:33:12.996Z,505.00
2023-04-18T04:34:13.244Z,505.00
2023-04-18T04:35:12.084Z,504.00
2023-04-18T04:36:13.108Z,504.00
2023-04-18T04:37:12.152Z,507.00
2023-04-18T04:38:13.161Z,506.00
2023-04-18T04:39:13.181Z,503.00
2023-04-18T04:40:13.211Z,506.00
2023-04-18T04:41:13.208Z,505.00
2023-04-18T04:42:13.296Z,504.00
2023-04-18T04:43:12.268Z,507.00
2023-04-18T04:44:13.642Z,504.00
2023-04-18T04:45:12.328Z,503.00
2023-04-18T04:46:12.385Z,506.00
2023-04-18T04:47:13.382Z,505.00
2023-04-18T04:48:13.393Z,504.00
2023-04-18T04:49:12.470Z,501.00
2023-04-18T04:50:12.493Z,508.00
2023-04-18T04:51:12.485Z,510.00
2023-04-18T04:52:13.511Z,505.00
2023-04-18T04:53:13.532Z,505.00
2023-04-18T04:54:14.053Z,506.00
2023-04-18T04:55:13.691Z,506.00
2023-04-18T04:56:13.645Z,504.00
2023-04-18T04:57:13.708Z,510.00
2023-04-18T04:58:13.692Z,507.00
2023-04-18T04:59:13.690Z,508.00
2023-04-18T05:00:13.724Z,511.00
2023-04-18T05:01:13.861Z,503.00
2023-04-18T05:02:13.828Z,505.00
2023-04-18T05:03:14.004Z,509.00
2023-04-18T05:04:13.103Z,503.00
2023-04-18T05:05:13.821Z,507.00
2023-04-18T05:06:13.819Z,510.00
2023-04-18T05:07:12.861Z,510.00
2023-04-18T05:08:12.878Z,502.00
2023-04-18T05:09:12.922Z,509.00
2023-04-18T05:10:12.906Z,507.00
2023-04-18T05:11:12.928Z,509.00
2023-04-18T05:12:12.957Z,506.00
2023-04-18T05:13:12.987Z,508.00
2023-04-18T05:14:13.367Z,507.00
2023-04-18T05:15:14.014Z,514.00
2023-04-18T05:16:13.033Z,508.00
2023-04-18T05:17:14.027Z,504.00
2023-04-18T05:18:14.028Z,505.00
2023-04-18T05:19:14.099Z,509.00
2023-04-18T05:20:14.109Z,508.00
2023-04-18T05:21:13.096Z,510.00
2023-04-18T05:22:14.127Z,508.00
2023-04-18T05:23:14.161Z,505.00
2023-04-18T05:24:14.496Z,506.00
2023-04-18T05:25:13.193Z,503.00
2023-04-18T05:26:14.250Z,503.00
2023-04-18T05:27:13.226Z,502.00
2023-04-18T05:28:14.284Z,501.00
2023-04-18T05:29:13.473Z,505.00
2023-04-18T05:30:13.320Z,507.00
2023-04-18T05:31:14.388Z,508.00
2023-04-18T05:32:13.401Z,506.00
2023-04-18T05:33:14.415Z,500.00
2023-04-18T05:34:14.679Z,508.00
2023-04-18T05:35:14.427Z,514.00
2023-04-18T05:36:14.440Z,517.00
2023-04-18T05:37:14.430Z,512.00
2023-04-18T05:38:14.400Z,518.00
2023-04-18T05:39:13.415Z,516.00
2023-04-18T05:40:13.431Z,516.00
2023-04-18T05:41:13.525Z,504.00
2023-04-18T05:42:14.487Z,495.00
2023-04-18T05:43:14.581Z,503.00
2023-04-18T05:44:14.602Z,502.00
2023-04-18T05:45:14.555Z,507.00
2023-04-18T05:46:13.648Z,501.00
2023-04-18T05:47:14.549Z,508.00
2023-04-18T05:48:13.688Z,510.00
2023-04-18T05:49:13.770Z,507.00
2023-04-18T05:50:14.864Z,512.00
2023-04-18T05:51:14.909Z,513.00
2023-04-18T05:52:14.952Z,524.00
2023-04-18T05:53:17.827Z,501.00
2023-04-18T05:54:15.069Z,501.00
2023-04-18T05:55:15.361Z,504.00
2023-04-18T05:56:15.121Z,507.00
2023-04-18T05:57:13.944Z,507.00
2023-04-18T05:58:14.933Z,512.00
2023-04-18T05:59:13.993Z,514.00
2023-04-18T06:00:14.950Z,543.00
2023-04-18T06:01:14.901Z,576.00
2023-04-18T06:02:15.024Z,571.00
2023-04-18T06:03:14.006Z,567.00
2023-04-18T06:04:14.289Z,595.00
2023-04-18T06:05:15.049Z,586.00
2023-04-18T06:06:13.863Z,601.00
2023-04-18T06:07:14.864Z,795.00
2023-04-18T06:08:13.870Z,1005.00
2023-04-18T06:09:13.859Z,874.00
2023-04-18T06:10:13.847Z,834.00
2023-04-18T06:11:14.867Z,831.00
2023-04-18T06:12:13.870Z,811.00
2023-04-18T06:13:14.827Z,761.00
2023-04-18T06:14:15.187Z,789.00
2023-04-18T06:15:15.009Z,785.00
2023-04-18T06:16:14.866Z,760.00
2023-04-18T06:17:13.832Z,755.00
2023-04-18T06:18:14.811Z,761.00
2023-04-18T06:19:13.795Z,785.00
2023-04-18T06:20:14.812Z,787.00
2023-04-18T06:21:14.829Z,785.00
2023-04-18T06:22:14.869Z,821.00
2023-04-18T06:23:14.939Z,808.00
2023-04-18T06:24:15.335Z,857.00
2023-04-18T06:25:13.974Z,895.00
2023-04-18T06:26:15.069Z,904.00
2023-04-18T06:27:24.406Z,901.00
2023-04-18T06:28:14.994Z,905.00
2023-04-18T06:29:14.979Z,910.00
2023-04-18T06:30:15.021Z,917.00
2023-04-18T06:31:15.043Z,926.00
2023-04-18T06:32:13.964Z,932.00
2023-04-18T06:33:13.939Z,957.00
2023-04-18T06:34:15.454Z,967.00
2023-04-18T06:35:14.945Z,999.00
2023-04-18T06:36:13.947Z,1018.00
2023-04-18T06:37:14.950Z,1012.00
2023-04-18T06:38:14.946Z,990.00
2023-04-18T06:39:14.024Z,999.00
2023-04-18T06:40:13.936Z,1030.00
2023-04-18T06:41:14.909Z,1016.00
2023-04-18T06:42:14.909Z,1037.00
2023-04-18T06:43:13.967Z,1036.00
2023-04-18T06:44:15.015Z,1059.00
2023-04-18T06:45:14.886Z,1067.00
2023-04-18T06:46:14.926Z,1065.00
2023-04-18T06:47:14.865Z,1048.00
2023-04-18T06:48:14.873Z,1070.00
2023-04-18T06:49:15.014Z,1122.00
2023-04-18T06:50:15.010Z,1151.00
2023-04-18T06:51:15.109Z,1144.00
2023-04-18T06:52:14.122Z,1151.00
2023-04-18T06:53:15.083Z,1391.00
2023-04-18T06:54:15.257Z,1224.00
2023-04-18T06:55:15.218Z,1244.00
2023-04-18T06:56:14.592Z,1221.00
2023-04-18T06:57:15.269Z,1192.00
2023-04-18T06:58:15.390Z,1164.00
2023-04-18T06:59:15.404Z,1153.00
2023-04-18T07:00:14.422Z,1125.00
2023-04-18T07:01:15.577Z,1109.00
2023-04-18T07:02:14.580Z,1099.00
2023-04-18T07:03:15.734Z,1100.00
2023-04-18T07:04:14.872Z,1099.00
2023-04-18T07:05:15.561Z,1105.00
2023-04-18T07:06:15.598Z,1085.00
2023-04-18T07:07:14.567Z,1088.00
2023-04-18T07:08:14.549Z,1084.00
2023-04-18T07:09:15.559Z,1088.00
2023-04-18T07:10:15.594Z,1070.00
2023-04-18T07:11:15.627Z,1077.00
2023-04-18T07:12:14.654Z,1057.00
2023-04-18T07:13:15.624Z,1068.00
2023-04-18T07:14:15.848Z,1062.00
2023-04-18T07:15:15.662Z,1061.00
2023-04-18T07:16:15.856Z,1058.00
2023-04-18T07:17:15.831Z,1056.00
2023-04-18T07:18:23.276Z,1045.00
2023-04-18T07:19:15.721Z,1047.00
2023-04-18T07:20:15.745Z,1048.00
2023-04-18T07:21:15.811Z,1049.00
2023-04-18T07:22:14.751Z,1049.00
2023-04-18T07:23:15.699Z,1039.00
2023-04-18T07:24:15.994Z,1043.00
2023-04-18T07:25:15.746Z,1022.00
2023-04-18T07:26:15.778Z,1028.00
2023-04-18T07:27:15.675Z,1030.00
2023-04-18T07:28:14.653Z,1030.00
2023-04-18T07:29:15.700Z,1025.00
2023-04-18T07:30:15.656Z,1017.00
2023-04-18T07:31:15.682Z,1020.00
2023-04-18T07:32:14.659Z,1016.00
2023-04-18T07:33:15.632Z,996.00
2023-04-18T07:34:15.894Z,1000.00
2023-04-18T07:35:15.634Z,991.00
2023-04-18T07:36:16.274Z,996.00
2023-04-18T07:37:15.624Z,985.00
2023-04-18T07:38:15.677Z,988.00
2023-04-18T07:39:15.713Z,986.00
2023-04-18T07:40:14.732Z,966.00
2023-04-18T07:41:14.761Z,966.00
2023-04-18T07:42:15.719Z,984.00
2023-04-18T07:43:15.755Z,989.00
2023-04-18T07:44:16.005Z,963.00
2023-04-18T07:45:14.796Z,969.00
2023-04-18T07:46:16.015Z,962.00
2023-04-18T07:47:15.852Z,940.00
2023-04-18T07:48:15.941Z,964.00
2023-04-18T07:49:16.162Z,967.00
2023-04-18T07:50:16.007Z,969.00
2023-04-18T07:51:16.369Z,963.00
2023-04-18T07:52:15.019Z,938.00
2023-04-18T07:53:16.307Z,953.00
2023-04-18T07:54:15.262Z,949.00
2023-04-18T07:55:16.062Z,948.00
2023-04-18T07:56:16.087Z,947.00
2023-04-18T07:57:15.144Z,958.00
2023-04-18T07:58:16.112Z,937.00
2023-04-18T07:59:16.462Z,939.00
2023-04-18T08:00:16.155Z,943.00
2023-04-18T08:01:16.143Z,938.00
2023-04-18T08:02:16.306Z,920.00
2023-04-18T08:03:15.480Z,921.00
2023-04-18T08:04:15.320Z,925.00
2023-04-18T08:05:16.602Z,923.00
2023-04-18T08:06:15.213Z,914.00
2023-04-18T08:07:16.361Z,904.00
2023-04-18T08:08:16.260Z,911.00
2023-04-18T08:09:16.416Z,902.00
2023-04-18T08:10:15.518Z,906.00
2023-04-18T08:11:15.299Z,911.00
2023-04-18T08:12:15.376Z,910.00
2023-04-18T08:13:16.336Z,892.00
2023-04-18T08:14:15.367Z,906.00
2023-04-18T08:15:16.528Z,894.00
2023-04-18T08:16:17.480Z,897.00
2023-04-18T08:17:16.400Z,889.00
2023-04-18T08:18:16.455Z,888.00
2023-04-18T08:19:15.713Z,872.00
2023-04-18T08:20:15.517Z,889.00
2023-04-18T08:21:16.477Z,875.00
2023-04-18T08:22:15.576Z,867.00
2023-04-18T08:23:15.478Z,879.00
2023-04-18T08:24:16.572Z,860.00
2023-04-18T08:25:15.520Z,879.00
2023-04-18T08:26:15.617Z,889.00
2023-04-18T08:27:17.768Z,863.00
2023-04-18T08:28:16.791Z,872.00
2023-04-18T08:29:16.645Z,860.00
2023-04-18T08:30:16.617Z,855.00
2023-04-18T08:31:15.677Z,869.00
2023-04-18T08:32:16.617Z,857.00
2023-04-18T08:33:16.652Z,865.00
2023-04-18T08:34:16.712Z,843.00
2023-04-18T08:35:16.742Z,848.00
2023-04-18T08:36:16.701Z,839.00
2023-04-18T08:37:16.716Z,858.00
2023-04-18T08:38:16.720Z,853.00
2023-04-18T08:39:15.950Z,835.00
2023-04-18T08:40:16.805Z,833.00
2023-04-18T08:41:16.146Z,842.00
2023-04-18T08:42:16.907Z,831.00
2023-04-18T08:43:16.802Z,836.00
2023-04-18T08:44:16.829Z,1638.00
2023-04-18T08:45:16.035Z,1058.00
2023-04-18T08:46:15.981Z,976.00
2023-04-18T08:47:15.985Z,913.00
2023-04-18T08:48:17.005Z,870.00
2023-04-18T08:49:17.328Z,842.00
2023-04-18T08:50:17.048Z,860.00
2023-04-18T08:51:17.077Z,863.00
2023-04-18T08:52:17.081Z,868.00
2023-04-18T08:53:17.077Z,877.00
2023-04-18T08:54:17.317Z,905.00
2023-04-18T08:55:17.221Z,901.00
2023-04-18T08:56:17.138Z,920.00
2023-04-18T08:57:17.090Z,933.00
2023-04-18T08:58:17.186Z,944.00
2023-04-18T08:59:16.412Z,949.00
2023-04-18T09:00:17.283Z,936.00
2023-04-18T09:01:17.394Z,937.00
2023-04-18T09:02:17.467Z,942.00
2023-04-18T09:03:17.584Z,955.00
2023-04-18T09:04:17.625Z,955.00
2023-04-18T09:05:16.616Z,956.00
2023-04-18T09:06:16.667Z,951.00
2023-04-18T09:07:17.697Z,934.00
2023-04-18T09:08:17.749Z,941.00
2023-04-18T09:09:16.777Z,935.00
2023-04-18T09:10:17.795Z,925.00
2023-04-18T09:11:16.826Z,950.00
2023-04-18T09:12:17.842Z,934.00
2023-04-18T09:13:17.867Z,937.00
2023-04-18T09:14:18.097Z,932.00
2023-04-18T09:15:16.965Z,942.00
2023-04-18T09:16:17.072Z,944.00
2023-04-18T09:17:17.053Z,935.00
2023-04-18T09:18:18.082Z,936.00
2023-04-18T09:19:18.424Z,940.00
2023-04-18T09:20:18.146Z,921.00
2023-04-18T09:21:18.271Z,918.00
2023-04-18T09:22:18.218Z,930.00
2023-04-18T09:23:17.289Z,926.00
2023-04-18T09:24:18.311Z,923.00
2023-04-18T09:25:17.343Z,932.00
2023-04-18T09:26:17.420Z,929.00
2023-04-18T09:27:18.450Z,925.00
2023-04-18T09:28:18.538Z,924.00
2023-04-18T09:29:18.662Z,918.00
2023-04-18T09:30:18.662Z,923.00
2023-04-18T09:31:18.727Z,929.00
2023-04-18T09:32:18.771Z,927.00
2023-04-18T09:33:17.782Z,922.00
2023-04-18T09:34:18.835Z,915.00
2023-04-18T09:35:18.912Z,912.00
2023-04-18T09:36:17.972Z,919.00
2023-04-18T09:37:18.029Z,912.00
2023-04-18T09:38:19.127Z,917.00
2023-04-18T09:39:18.302Z,916.00
2023-04-18T09:40:19.235Z,911.00
2023-04-18T09:41:21.491Z,900.00
2023-04-18T09:42:18.298Z,919.00
2023-04-18T09:43:19.289Z,901.00
2023-04-18T09:44:18.606Z,916.00
2023-04-18T09:45:19.289Z,904.00
2023-04-18T09:46:18.647Z,901.00
2023-04-18T09:47:18.662Z,901.00
2023-04-18T09:48:19.286Z,907.00
2023-04-18T09:49:18.568Z,922.00
2023-04-18T09:50:19.237Z,908.00
2023-04-18T09:51:19.227Z,898.00
2023-04-18T09:52:18.694Z,1039.00
2023-04-18T09:53:20.569Z,1306.00
2023-04-18T09:54:18.421Z,1231.00
2023-04-18T09:55:19.476Z,1171.00
2023-04-18T09:56:18.515Z,1151.00
2023-04-18T09:57:18.644Z,1118.00
2023-04-18T09:58:18.643Z,1137.00
2023-04-18T09:59:21.111Z,1132.00
2023-04-18T10:00:18.821Z,1132.00
2023-04-18T10:01:20.012Z,1184.00
2023-04-18T10:02:20.200Z,1195.00
2023-04-18T10:03:20.168Z,1191.00
2023-04-18T10:04:19.033Z,1186.00
2023-04-18T10:05:21.235Z,1186.00
2023-04-18T10:06:20.047Z,1188.00
2023-04-18T10:07:19.062Z,1196.00
2023-04-18T10:08:20.133Z,1192.00
2023-04-18T10:09:19.131Z,1198.00
2023-04-18T10:10:20.170Z,1198.00
2023-04-18T10:11:20.368Z,1265.00
2023-04-18T10:12:20.270Z,1302.00
2023-04-18T10:13:19.225Z,1315.00
2023-04-18T10:14:19.242Z,1355.00
2023-04-18T10:15:19.274Z,1382.00
2023-04-18T10:16:20.499Z,1383.00
2023-04-18T10:17:20.461Z,1394.00
2023-04-18T10:18:20.422Z,1406.00
2023-04-18T10:19:20.438Z,1405.00
2023-04-18T10:20:19.345Z,1389.00
2023-04-18T10:21:21.418Z,1372.00
2023-04-18T10:22:20.318Z,1365.00
2023-04-18T10:23:20.526Z,1371.00
2023-04-18T10:24:19.306Z,1386.00
2023-04-18T10:25:20.336Z,1371.00
2023-04-18T10:26:20.301Z,1382.00
2023-04-18T10:27:20.381Z,1402.00
2023-04-18T10:28:20.387Z,1504.00
2023-04-18T10:29:20.495Z,1463.00
2023-04-18T10:30:20.399Z,1454.00
2023-04-18T10:31:19.433Z,1451.00
2023-04-18T10:32:20.463Z,1456.00
2023-04-18T10:33:29.330Z,1469.00
2023-04-18T10:34:20.826Z,1470.00
2023-04-18T10:35:20.363Z,1470.00
2023-04-18T10:36:20.366Z,1473.00
2023-04-18T10:37:20.591Z,1481.00
2023-04-18T10:38:20.392Z,1479.00
2023-04-18T10:39:20.378Z,1481.00
2023-04-18T10:40:19.450Z,1493.00
2023-04-18T10:41:20.315Z,1483.00
2023-04-18T10:42:19.664Z,1463.00
2023-04-18T10:43:20.304Z,1454.00
2023-04-18T10:44:19.292Z,1443.00
2023-04-18T10:45:19.452Z,1430.00
2023-04-18T10:46:31.048Z,1427.00
2023-04-18T10:47:20.775Z,1429.00
2023-04-18T10:48:19.328Z,1429.00
2023-04-18T10:49:20.332Z,1432.00
2023-04-18T10:50:20.276Z,1434.00
2023-04-18T10:51:20.261Z,1428.00
2023-04-18T10:52:19.266Z,1425.00
2023-04-18T10:53:19.247Z,1420.00
2023-04-18T10:54:20.331Z,1420.00
2023-04-18T10:55:19.287Z,1400.00
2023-04-18T10:56:20.233Z,1405.00
2023-04-18T10:57:20.218Z,1399.00
2023-04-18T10:58:20.205Z,1398.00
2023-04-18T10:59:20.194Z,1399.00
2023-04-18T11:00:20.308Z,1376.00
2023-04-18T11:01:19.199Z,1380.00
2023-04-18T11:02:20.314Z,1375.00
2023-04-18T11:03:19.282Z,1368.00
2023-04-18T11:04:19.473Z,1364.00
2023-04-18T11:05:20.162Z,1350.00
2023-04-18T11:06:19.232Z,1360.00
2023-04-18T11:07:19.160Z,1348.00
2023-04-18T11:08:19.134Z,1356.00
2023-04-18T11:09:19.128Z,1346.00
2023-04-18T11:10:19.150Z,1353.00
2023-04-18T11:11:20.195Z,1329.00
2023-04-18T11:12:20.259Z,1338.00
2023-04-18T11:13:20.288Z,1324.00
2023-04-18T11:14:20.326Z,1330.00
2023-04-18T11:15:19.366Z,1318.00
2023-04-18T11:16:20.426Z,1321.00
2023-04-18T11:17:20.510Z,1329.00
2023-04-18T11:18:20.535Z,1301.00
2023-04-18T11:19:20.559Z,1331.00
2023-04-18T11:20:20.659Z,1314.00
2023-04-18T11:21:20.668Z,1307.00
2023-04-18T11:22:19.829Z,1300.00
2023-04-18T11:23:19.799Z,1303.00
2023-04-18T11:24:20.876Z,1298.00
2023-04-18T11:25:19.908Z,1300.00
2023-04-18T11:26:19.958Z,1293.00
2023-04-18T11:27:21.011Z,1280.00
2023-04-18T11:28:20.057Z,1282.00
2023-04-18T11:29:21.098Z,1275.00
2023-04-18T11:30:21.147Z,1275.00
2023-04-18T11:31:21.237Z,1271.00
2023-04-18T11:32:21.464Z,1266.00
2023-04-18T11:33:20.308Z,1266.00
2023-04-18T11:34:21.337Z,1242.00
2023-04-18T11:35:21.367Z,1242.00
2023-04-18T11:36:21.437Z,1254.00
2023-04-18T11:37:21.752Z,1257.00
2023-04-18T11:38:23.890Z,1252.00
2023-04-18T11:39:21.504Z,1261.00
2023-04-18T11:40:21.497Z,1255.00
2023-04-18T11:41:20.502Z,1259.00
2023-04-18T11:42:20.718Z,1242.00
2023-04-18T11:43:20.499Z,1243.00
2023-04-18T11:44:21.475Z,1226.00
2023-04-18T11:45:20.473Z,1239.00
2023-04-18T11:46:20.501Z,1213.00
2023-04-18T11:47:20.504Z,1219.00
2023-04-18T11:48:21.456Z,1227.00
2023-04-18T11:49:20.464Z,1227.00
2023-04-18T11:50:21.451Z,1214.00
2023-04-18T11:51:20.431Z,1216.00
2023-04-18T11:52:21.439Z,1212.00
2023-04-18T11:53:20.465Z,1204.00
2023-04-18T11:54:20.452Z,1208.00
2023-04-18T11:55:21.444Z,1201.00
2023-04-18T11:56:20.384Z,1204.00
2023-04-18T11:57:20.384Z,1204.00
2023-04-18T11:58:20.368Z,1185.00
2023-04-18T11:59:21.382Z,1189.00
2023-04-18T12:00:20.369Z,1183.00
2023-04-18T12:01:20.389Z,1182.00
2023-04-18T12:02:20.587Z,1181.00
2023-04-18T12:03:20.582Z,1162.00
2023-04-18T12:04:21.132Z,1165.00
2023-04-18T12:05:20.596Z,1169.00
2023-04-18T12:06:21.499Z,1169.00
2023-04-18T12:07:21.487Z,1169.00
2023-04-18T12:08:20.528Z,1149.00
2023-04-18T12:09:20.587Z,1144.00
2023-04-18T12:10:20.617Z,1149.00
2023-04-18T12:11:21.657Z,1150.00
2023-04-18T12:12:21.711Z,1143.00
2023-04-18T12:13:20.788Z,1141.00
2023-04-18T12:14:20.806Z,1135.00
2023-04-18T12:15:21.864Z,1140.00
2023-04-18T12:16:20.979Z,1123.00
2023-04-18T12:17:21.049Z,1125.00
2023-04-18T12:18:22.050Z,1119.00
2023-04-18T12:19:22.102Z,1115.00
2023-04-18T12:20:21.150Z,1068.00
2023-04-18T12:21:22.210Z,817.00
2023-04-18T12:22:21.736Z,695.00